Time;durP1;ratioP1;P1;durP2;ratioP2;P2;SDS_P1;SDS_P2;PMS_P1;PMS_P2;Temp;Humidity;BMP_temperature;BMP_pressure;BME280_temperature;BME280_humidity;BME280_pressure;Samples;Min_cycle;Max_cycle;Signal;HPM_P1;HPM_P2
2023/12/21 00:02:12;;;;;;;3.80;1.80;;;;;;;3.67;100.00;99137.34;5067751;28;20427;-76
2023/12/21 00:04:40;;;;;;;3.30;1.52;;;;;;;3.67;100.00;99131.19;5064323;28;20426;-76
2023/12/21 00:07:13;;;;;;;2.80;1.50;;;;;;;3.69;100.00;99131.72;5064953;28;20427;-77
2023/12/21 00:09:44;;;;;;;3.83;1.60;;;;;;;3.72;100.00;99141.94;5062492;28;20419;-76
2023/12/21 00:12:19;;;;;;;4.93;1.75;;;;;;;3.64;100.00;99150.56;5060354;28;20415;-77
2023/12/21 00:15:00;;;;;;;56.17;3.38;;;;;;;3.63;100.00;99136.28;5064480;28;20436;-76
2023/12/21 00:17:31;;;;;;;7.15;2.72;;;;;;;3.75;100.00;99152.16;5065114;28;20420;-75
2023/12/21 00:20:05;;;;;;;4.93;2.47;;;;;;;3.74;100.00;99153.22;5055271;28;20484;-75
2023/12/21 00:22:38;;;;;;;27.15;3.30;;;;;;;3.64;100.00;99145.97;5065734;28;20408;-77
2023/12/21 00:25:15;;;;;;;16.03;3.03;;;;;;;3.78;100.00;99154.28;5064913;28;20412;-76
2023/12/21 00:27:51;;;;;;;14.43;2.97;;;;;;;3.75;100.00;99157.53;5068089;28;20420;-77
2023/12/21 00:30:20;;;;;;;12.65;2.97;;;;;;;3.72;100.00;99136.56;5062517;28;20428;-76
2023/12/21 00:32:56;;;;;;;5.17;2.50;;;;;;;3.79;100.00;99126.31;5067245;28;20523;-76
2023/12/21 00:35:24;;;;;;;4.68;2.42;;;;;;;3.71;100.00;99126.88;5072441;28;20954;-79
2023/12/21 00:37:52;;;;;;;7.93;2.60;;;;;;;3.68;100.00;99130.13;5064040;28;20937;-76
2023/12/21 00:40:20;;;;;;;9.23;2.70;;;;;;;3.68;100.00;99127.41;5078699;28;20415;-77
2023/12/21 00:42:48;;;;;;;6.95;3.00;;;;;;;3.68;100.00;99124.72;5066970;28;20853;-76
2023/12/21 00:45:16;;;;;;;5.47;2.60;;;;;;;3.70;100.00;99126.06;5078888;28;20459;-80
2023/12/21 00:47:45;;;;;;;6.85;2.90;;;;;;;3.72;100.00;99125.81;5064142;28;20415;-76
2023/12/21 00:50:14;;;;;;;7.00;2.70;;;;;;;3.83;100.00;99116.63;5061944;28;20499;-77
2023/12/21 00:52:47;;;;;;;7.05;2.70;;;;;;;3.78;100.00;99113.94;5068380;28;20919;-76
2023/12/21 00:55:18;;;;;;;6.40;2.80;;;;;;;3.79;100.00;99098.63;5062243;28;20416;-76
2023/12/21 00:57:46;;;;;;;7.05;3.28;;;;;;;3.80;100.00;99086.75;5062064;28;20415;-76
2023/12/21 01:00:15;;;;;;;6.00;2.97;;;;;;;3.80;100.00;99089.44;5059972;28;20432;-76
2023/12/21 01:02:48;;;;;;;7.20;3.15;;;;;;;3.81;100.00;99102.66;5063002;28;20437;-76
2023/12/21 01:05:18;;;;;;;9.87;3.30;;;;;;;3.83;100.00;99102.38;5062723;28;21741;-76
2023/12/21 01:07:46;;;;;;;7.63;3.03;;;;;;;3.83;100.00;99097.78;5062515;28;20410;-78
2023/12/21 01:10:20;;;;;;;6.28;2.90;;;;;;;3.78;100.00;99094.31;5073207;28;20423;-76
2023/12/21 01:12:53;;;;;;;7.45;3.17;;;;;;;3.85;100.00;99086.75;5063598;28;20412;-76
2023/12/21 01:15:26;;;;;;;6.28;2.72;;;;;;;3.86;100.00;99089.16;5066880;28;20780;-77
2023/12/21 01:17:59;;;;;;;6.33;3.20;;;;;;;3.87;100.00;99079.22;5059477;28;20409;-76
2023/12/21 01:20:34;;;;;;;6.40;3.00;;;;;;;3.87;100.00;99080.00;5068210;28;20419;-76
2023/12/21 01:23:07;;;;;;;6.53;3.05;;;;;;;3.85;100.00;99074.09;5054422;28;20436;-76
2023/12/21 01:25:40;;;;;;;7.97;3.00;;;;;;;3.80;100.00;99074.13;5063901;28;20418;-76
2023/12/21 01:28:13;;;;;;;7.15;3.22;;;;;;;3.92;100.00;99060.34;5072298;28;20448;-75
2023/12/21 01:30:48;;;;;;;6.68;3.10;;;;;;;3.86;100.00;99042.59;5067832;28;20407;-78
2023/12/21 01:33:16;;;;;;;8.48;3.72;;;;;;;3.85;100.00;99039.13;5056492;28;20416;-76
2023/12/21 01:35:46;;;;;;;9.07;4.20;;;;;;;3.87;100.00;99036.16;5061847;28;20426;-75
2023/12/21 01:38:14;;;;;;;7.85;4.15;;;;;;;3.86;100.00;99032.63;5069827;28;20454;-75
2023/12/21 01:40:47;;;;;;;8.70;3.55;;;;;;;3.90;100.00;99033.69;5068259;28;20419;-76
2023/12/21 01:43:21;;;;;;;6.20;3.05;;;;;;;3.95;100.00;99030.19;5067327;28;20431;-78
2023/12/21 01:45:55;;;;;;;5.13;2.20;;;;;;;3.95;100.00;99027.50;5064179;28;20427;-76
2023/12/21 01:48:30;;;;;;;6.18;2.00;;;;;;;3.99;100.00;99014.28;5065287;28;20431;-78
2023/12/21 01:51:05;;;;;;;7.15;2.10;;;;;;;4.02;100.00;99003.78;5064946;28;20896;-77
2023/12/21 01:53:34;;;;;;;5.75;2.20;;;;;;;4.10;100.00;98988.91;5065712;28;20403;-75
2023/12/21 01:56:08;;;;;;;5.75;2.30;;;;;;;4.12;100.00;98977.88;5069381;28;20466;-76
2023/12/21 01:58:37;;;;;;;6.15;2.40;;;;;;;4.12;100.00;98962.53;5066449;28;20411;-75
2023/12/21 02:01:06;;;;;;;9.30;2.30;;;;;;;4.24;100.00;98965.69;5063164;28;20884;-76
2023/12/21 02:03:35;;;;;;;7.05;1.90;;;;;;;4.41;100.00;98957.19;5073522;28;20421;-75
2023/12/21 02:06:05;;;;;;;8.02;2.10;;;;;;;4.50;100.00;98948.50;5069207;28;20439;-76
2023/12/21 02:08:38;;;;;;;9.27;1.88;;;;;;;4.70;100.00;98944.84;5068530;28;20419;-77
2023/12/21 02:11:08;;;;;;;13.52;2.20;;;;;;;4.82;100.00;98942.59;5067679;28;20427;-76
2023/12/21 02:13:37;;;;;;;13.82;1.83;;;;;;;5.12;100.00;98932.56;5064564;28;20446;-76
2023/12/21 02:16:15;;;;;;;8.48;1.70;;;;;;;5.26;100.00;98933.50;5071222;28;20424;-75
2023/12/21 02:18:50;;;;;;;12.40;1.80;;;;;;;5.45;100.00;98930.84;5067934;28;20447;-76
2023/12/21 02:21:19;;;;;;;13.93;1.80;;;;;;;5.67;100.00;98928.69;5071642;28;20423;-75
2023/12/21 02:23:53;;;;;;;17.73;1.70;;;;;;;5.84;100.00;98923.59;5069767;28;20404;-75
2023/12/21 02:26:28;;;;;;;8.95;1.50;;;;;;;6.07;100.00;98916.53;5069563;28;20896;-78
2023/12/21 02:29:01;;;;;;;13.88;1.70;;;;;;;6.15;100.00;98909.66;5059145;28;20425;-77
2023/12/21 02:31:29;;;;;;;10.68;1.80;;;;;;;6.22;100.00;98901.19;5089968;28;20420;-77
2023/12/21 02:33:57;;;;;;;12.50;1.85;;;;;;;6.32;100.00;98906.41;5066276;28;20434;-75
2023/12/21 02:36:25;;;;;;;9.32;1.50;;;;;;;6.29;100.00;98898.91;5071512;28;20419;-76
2023/12/21 02:38:54;;;;;;;9.15;1.23;;;;;;;6.33;100.00;98893.72;5081301;28;20419;-75
2023/12/21 02:41:28;;;;;;;13.82;1.50;;;;;;;6.41;100.00;98893.84;5066588;28;20427;-76
2023/12/21 02:43:58;;;;;;;11.40;1.60;;;;;;;6.42;100.00;98883.84;5073381;28;20436;-75
2023/12/21 02:46:31;;;;;;;12.98;1.75;;;;;;;6.43;100.00;98882.75;5072461;28;20408;-76
2023/12/21 02:49:00;;;;;;;8.13;1.60;;;;;;;6.43;100.00;98883.53;5072911;28;20558;-77
2023/12/21 02:51:33;;;;;;;7.97;1.70;;;;;;;6.54;100.00;98886.06;5068608;28;20408;-77
2023/12/21 02:54:06;;;;;;;8.25;1.65;;;;;;;6.46;100.00;98885.66;5071969;28;20410;-75
2023/12/21 02:56:42;;;;;;;15.57;1.90;;;;;;;6.63;100.00;98892.41;5068332;28;20462;-77
2023/12/21 02:59:10;;;;;;;11.55;1.90;;;;;;;6.54;100.00;98888.78;5070187;28;20416;-75
2023/12/21 03:01:43;;;;;;;14.73;2.20;;;;;;;6.56;100.00;98883.88;5057878;28;20421;-76
2023/12/21 03:04:16;;;;;;;14.18;2.05;;;;;;;6.59;100.00;98880.59;5070544;28;20423;-76
2023/12/21 03:06:44;;;;;;;12.32;2.08;;;;;;;6.58;100.00;98876.28;5056117;28;20866;-75
2023/12/21 03:09:18;;;;;;;8.67;1.50;;;;;;;6.63;100.00;98870.78;5072108;28;20428;-75
2023/12/21 03:11:49;;;;;;;11.52;1.67;;;;;;;6.58;100.00;98868.16;5063908;28;20404;-76
2023/12/21 03:14:22;;;;;;;9.55;1.70;;;;;;;6.56;100.00;98859.53;5070879;28;20428;-77
2023/12/21 03:16:57;;;;;;;8.60;1.48;;;;;;;6.60;100.00;98868.66;5072806;28;20423;-77
2023/12/21 03:19:31;;;;;;;10.05;1.80;;;;;;;6.67;100.00;98870.97;5059821;28;20428;-76
2023/12/21 03:22:04;;;;;;;11.13;1.67;;;;;;;6.65;100.00;98865.88;5066968;28;20412;-75
2023/12/21 03:24:33;;;;;;;11.35;1.90;;;;;;;6.63;100.00;98855.34;5070955;28;20411;-75
2023/12/21 03:27:09;;;;;;;10.55;1.65;;;;;;;6.69;100.00;98852.56;5069006;28;20412;-75
2023/12/21 03:29:57;;;;;;;9.07;1.57;;;;;;;6.75;100.00;98841.38;5065919;28;20404;-78
2023/12/21 03:32:25;;;;;;;13.63;2.13;;;;;;;6.72;100.00;98841.94;5067355;28;20420;-77
2023/12/21 03:34:53;;;;;;;10.25;1.70;;;;;;;6.71;100.00;98845.78;5064395;28;20415;-77
2023/12/21 03:37:26;;;;;;;11.98;1.88;;;;;;;6.69;100.00;98830.94;5063426;28;20768;-77
2023/12/21 03:40:02;;;;;;;12.47;2.03;;;;;;;6.66;100.00;98834.22;5065054;28;20537;-75
2023/12/21 03:42:37;;;;;;;9.35;2.03;;;;;;;6.74;100.00;98820.84;5068240;28;20420;-77
2023/12/21 03:45:06;;;;;;;14.35;2.20;;;;;;;6.79;100.00;98819.91;5082757;28;20426;-75
2023/12/21 03:47:39;;;;;;;13.73;2.47;;;;;;;6.73;100.00;98818.44;5066702;28;20425;-76
2023/12/21 03:50:12;;;;;;;14.25;2.85;;;;;;;6.73;100.00;98808.41;5061460;28;20431;-76
2023/12/21 03:52:45;;;;;;;12.15;2.95;;;;;;;6.88;100.00;98801.13;5068454;28;20423;-76
2023/12/21 03:55:18;;;;;;;12.82;2.80;;;;;;;6.77;100.00;98801.31;5064214;28;20426;-76
2023/12/21 03:57:53;;;;;;;14.23;3.33;;;;;;;6.76;100.00;98798.91;5066178;28;20869;-76
2023/12/21 04:00:26;;;;;;;11.88;3.13;;;;;;;6.72;100.00;98790.56;5065933;28;20435;-77
2023/12/21 04:02:54;;;;;;;13.18;3.00;;;;;;;6.75;100.00;98776.47;5062617;28;20426;-76
2023/12/21 04:05:33;;;;;;;10.23;2.70;;;;;;;6.81;100.00;98779.88;5069345;28;20425;-75
2023/12/21 04:08:07;;;;;;;11.40;2.63;;;;;;;6.85;100.00;98775.47;5061496;28;20423;-75
2023/12/21 04:10:40;;;;;;;12.03;2.60;;;;;;;6.84;100.00;98773.06;5065684;28;20422;-75
2023/12/21 04:13:15;;;;;;;11.82;2.75;;;;;;;6.76;100.00;98769.16;5062251;28;20432;-75
2023/12/21 04:15:48;;;;;;;12.95;2.88;;;;;;;6.76;100.00;98756.44;5063499;28;20417;-75
2023/12/21 04:18:16;;;;;;;14.68;2.88;;;;;;;6.77;100.00;98741.81;5073884;28;20926;-75
2023/12/21 04:20:44;;;;;;;13.73;3.10;;;;;;;6.81;100.00;98731.22;5067028;28;20509;-75
2023/12/21 04:23:19;;;;;;;11.13;2.63;;;;;;;6.88;100.00;98726.19;5072115;28;20435;-77
2023/12/21 04:25:48;;;;;;;11.35;2.50;;;;;;;6.84;100.00;98751.44;5066439;28;20424;-75
2023/12/21 04:28:22;;;;;;;7.57;2.40;;;;;;;6.80;100.00;98730.41;5068531;28;20426;-75
2023/12/21 04:30:50;;;;;;;9.70;2.30;;;;;;;6.85;100.00;98715.16;5062901;28;20419;-77
2023/12/21 04:33:23;;;;;;;10.07;2.30;;;;;;;6.90;100.00;98704.25;5066952;28;20420;-76
2023/12/21 04:35:57;;;;;;;9.75;1.85;;;;;;;6.93;100.00;98704.47;5062484;28;20450;-77
2023/12/21 04:38:30;;;;;;;5.97;1.70;;;;;;;6.91;100.00;98706.66;5063811;28;20901;-76
2023/12/21 04:41:03;;;;;;;8.60;1.80;;;;;;;6.96;100.00;98701.13;5066687;28;20427;-76
2023/12/21 04:43:33;;;;;;;9.93;1.90;;;;;;;6.90;100.00;98688.03;5068727;28;20746;-75
2023/12/21 04:46:06;;;;;;;8.98;1.60;;;;;;;6.92;100.00;98683.91;5064868;28;20431;-77
2023/12/21 04:48:34;;;;;;;10.05;1.77;;;;;;;6.94;100.00;98684.41;5069175;28;20404;-78
2023/12/21 04:51:07;;;;;;;6.85;1.35;;;;;;;6.97;100.00;98664.88;5069035;28;20418;-76
2023/12/21 04:53:35;;;;;;;4.47;1.30;;;;;;;6.89;100.00;98662.09;5080057;28;20450;-75
2023/12/21 04:56:04;;;;;;;2.50;1.00;;;;;;;6.91;100.00;98655.28;5069600;28;20490;-75
2023/12/21 04:58:37;;;;;;;4.50;1.10;;;;;;;6.91;100.00;98647.16;5068905;28;20430;-76
2023/12/21 05:01:06;;;;;;;3.37;1.00;;;;;;;6.94;100.00;98634.94;5066558;28;20417;-75
2023/12/21 05:03:39;;;;;;;4.68;0.90;;;;;;;6.93;100.00;98606.28;5086453;28;20434;-76
2023/12/21 05:06:12;;;;;;;5.33;1.00;;;;;;;6.92;100.00;98612.81;5062333;28;20420;-75
2023/12/21 05:08:40;;;;;;;5.15;0.98;;;;;;;6.88;100.00;98601.03;5062161;28;20424;-76
2023/12/21 05:11:14;;;;;;;4.13;1.00;;;;;;;6.87;100.00;98594.78;5062848;28;20842;-76
2023/12/21 05:13:48;;;;;;;6.78;0.98;;;;;;;6.91;100.00;98590.38;5085499;28;20431;-77
2023/12/21 05:16:21;;;;;;;4.97;1.10;;;;;;;6.95;100.00;98577.84;5068497;28;20419;-80
2023/12/21 05:18:55;;;;;;;3.70;1.20;;;;;;;7.02;100.00;98571.22;5067769;28;20453;-76
2023/12/21 05:21:28;;;;;;;3.50;1.00;;;;;;;6.98;100.00;98565.63;5074987;28;20795;-75
2023/12/21 05:23:56;;;;;;;6.13;1.00;;;;;;;6.93;100.00;98544.91;5062979;28;20427;-75
2023/12/21 05:26:24;;;;;;;4.70;1.00;;;;;;;6.94;100.00;98543.00;5063253;28;20438;-78
2023/12/21 05:28:59;;;;;;;7.05;1.15;;;;;;;7.03;100.00;98526.81;5067820;28;20416;-77
2023/12/21 05:31:34;;;;;;;4.10;1.10;;;;;;;6.96;100.00;98521.84;5067299;28;20775;-77
2023/12/21 05:34:02;;;;;;;3.78;1.05;;;;;;;6.88;100.00;98504.47;5066741;28;20411;-77
2023/12/21 05:36:35;;;;;;;5.50;1.00;;;;;;;7.05;100.00;98506.47;5070413;28;20423;-76
2023/12/21 05:39:03;;;;;;;1.98;0.90;;;;;;;7.01;100.00;98489.25;5067196;28;21350;-76
2023/12/21 05:41:36;;;;;;;3.67;1.00;;;;;;;7.06;100.00;98489.13;5065580;28;21029;-77
2023/12/21 05:44:11;;;;;;;1.98;1.08;;;;;;;7.03;100.00;98481.66;5065544;28;20447;-76
2023/12/21 05:46:44;;;;;;;2.83;1.35;;;;;;;7.00;100.00;98479.56;5065730;28;20435;-75
2023/12/21 05:49:17;;;;;;;4.13;1.33;;;;;;;7.06;100.00;98467.50;5066016;28;20426;-75
2023/12/21 05:51:50;;;;;;;3.70;1.60;;;;;;;7.09;100.00;98456.06;5059951;28;20420;-76
2023/12/21 05:54:19;;;;;;;3.13;1.40;;;;;;;7.09;100.00;98450.66;5063661;28;20425;-77
2023/12/21 05:56:52;;;;;;;2.25;1.50;;;;;;;7.03;100.00;98427.56;5065933;28;20450;-75
2023/12/21 05:59:27;;;;;;;3.80;1.70;;;;;;;7.04;100.00;98422.94;5065762;28;20432;-75
2023/12/21 06:02:00;;;;;;;5.53;2.00;;;;;;;7.04;100.00;98415.63;5062075;28;20431;-76
2023/12/21 06:04:29;;;;;;;4.88;2.05;;;;;;;7.10;100.00;98397.38;5062843;28;20428;-75
2023/12/21 06:06:57;;;;;;;3.97;2.00;;;;;;;7.06;100.00;98391.78;5059273;28;20438;-76
2023/12/21 06:09:25;;;;;;;5.25;2.10;;;;;;;7.08;100.00;98367.91;5061629;28;20423;-76
2023/12/21 06:11:58;;;;;;;5.88;2.30;;;;;;;7.14;100.00;98363.97;5068962;28;20792;-75
2023/12/21 06:14:28;;;;;;;5.00;2.15;;;;;;;7.07;100.00;98338.47;5060624;28;20868;-74
2023/12/21 06:16:56;;;;;;;4.87;2.20;;;;;;;7.24;100.00;98341.22;5057440;28;20516;-76
2023/12/21 06:19:24;;;;;;;5.60;2.30;;;;;;;7.14;100.00;98330.72;5063019;28;20427;-76
2023/12/21 06:21:57;;;;;;;4.18;2.10;;;;;;;7.17;100.00;98321.16;5061115;28;20900;-77
2023/12/21 06:24:30;;;;;;;7.17;2.20;;;;;;;7.14;100.00;98311.78;5068947;28;20421;-75
2023/12/21 06:26:59;;;;;;;4.13;1.83;;;;;;;7.14;100.00;98303.66;5054384;28;20408;-76
2023/12/21 06:29:28;;;;;;;5.22;1.90;;;;;;;7.16;100.00;98293.31;5062724;28;20757;-75
2023/12/21 06:32:02;;;;;;;3.63;1.63;;;;;;;7.22;100.00;98286.66;5059156;28;20912;-76
2023/12/21 06:34:30;;;;;;;3.75;1.67;;;;;;;7.13;100.00;98285.84;5058161;28;20416;-76
2023/12/21 06:37:04;;;;;;;4.30;1.40;;;;;;;7.20;100.00;98280.75;5082852;28;20421;-75
2023/12/21 06:39:33;;;;;;;3.33;1.30;;;;;;;7.15;100.00;98260.06;5061401;28;20430;-76
2023/12/21 06:42:01;;;;;;;3.20;1.40;;;;;;;7.07;100.00;98266.28;5067396;28;20415;-78
2023/12/21 06:44:30;;;;;;;2.67;1.38;;;;;;;7.10;100.00;98254.81;5065166;28;20432;-75
2023/12/21 06:47:04;;;;;;;3.60;1.30;;;;;;;7.12;100.00;98238.25;5065737;28;20515;-76
2023/12/21 06:49:32;;;;;;;3.10;1.15;;;;;;;7.09;100.00;98228.09;5070832;28;20423;-78
2023/12/21 06:52:06;;;;;;;3.60;1.20;;;;;;;7.10;100.00;98216.94;5073287;28;20436;-76
2023/12/21 06:54:34;;;;;;;1.95;1.00;;;;;;;7.09;100.00;98209.16;5066103;28;20415;-75
2023/12/21 06:57:07;;;;;;;2.22;1.00;;;;;;;7.17;100.00;98194.03;5065947;28;20429;-76
2023/12/21 06:59:42;;;;;;;1.88;0.90;;;;;;;7.10;100.00;98176.38;5070641;28;20427;-79
2023/12/21 07:02:10;;;;;;;2.50;0.90;;;;;;;7.11;100.00;98169.03;5068037;28;20452;-78
2023/12/21 07:04:38;;;;;;;3.10;0.95;;;;;;;7.14;100.00;98166.50;5066869;28;20427;-78
2023/12/21 07:07:06;;;;;;;1.65;0.90;;;;;;;7.12;100.00;98152.50;5064807;28;20439;-76
2023/12/21 07:09:39;;;;;;;1.65;0.80;;;;;;;7.13;100.00;98161.44;5069983;28;20423;-77
2023/12/21 07:12:08;;;;;;;0.98;0.73;;;;;;;7.11;100.00;98150.94;5070909;28;20931;-77
2023/12/21 07:14:39;;;;;;;1.80;0.90;;;;;;;7.23;100.00;98142.16;5068452;28;20425;-75
2023/12/21 07:17:13;;;;;;;1.60;1.00;;;;;;;7.21;100.00;98130.06;5065788;28;20575;-76
2023/12/21 07:19:47;;;;;;;1.30;0.80;;;;;;;7.12;100.00;98125.44;5061034;28;20809;-76
2023/12/21 07:22:20;;;;;;;1.90;0.70;;;;;;;7.12;100.00;98111.94;5068431;28;20883;-76
2023/12/21 07:24:53;;;;;;;1.38;0.80;;;;;;;7.13;100.00;98108.13;5066996;28;20415;-76
2023/12/21 07:27:21;;;;;;;2.05;0.88;;;;;;;7.13;100.00;98107.34;5063856;28;20427;-76
2023/12/21 07:29:50;;;;;;;1.48;0.60;;;;;;;7.22;100.00;98082.97;5066135;28;20411;-77
2023/12/21 07:32:19;;;;;;;1.52;0.88;;;;;;;7.21;100.00;98089.47;5061631;28;20429;-77
2023/12/21 07:34:53;;;;;;;1.20;0.77;;;;;;;7.23;100.00;98079.94;5065508;28;20424;-75
2023/12/21 07:37:26;;;;;;;1.90;0.90;;;;;;;7.22;100.00;98081.06;5070192;28;20429;-75
2023/12/21 07:39:54;;;;;;;1.30;0.60;;;;;;;7.28;100.00;98077.06;5066923;28;20941;-76
2023/12/21 07:42:28;;;;;;;1.45;0.80;;;;;;;7.23;100.00;98081.84;5066767;28;20925;-76
2023/12/21 07:44:57;;;;;;;1.73;0.80;;;;;;;7.25;100.00;98069.59;5070345;28;20415;-77
2023/12/21 07:47:26;;;;;;;1.85;0.70;;;;;;;7.25;100.00;98039.84;5068285;28;20423;-75
2023/12/21 07:49:55;;;;;;;3.17;0.80;;;;;;;7.23;100.00;98033.16;5069434;28;20428;-76
2023/12/21 07:52:23;;;;;;;0.80;0.60;;;;;;;7.23;100.00;98033.94;5073867;28;20429;-79
2023/12/21 07:54:56;;;;;;;2.22;0.68;;;;;;;7.27;100.00;98042.22;5067101;28;20430;-77
2023/12/21 07:57:29;;;;;;;2.10;0.68;;;;;;;7.29;100.00;98016.44;5061619;28;20431;-76
2023/12/21 08:00:03;;;;;;;0.70;0.57;;;;;;;7.21;100.00;98016.44;5068004;28;20450;-76
2023/12/21 08:02:44;;;;;;;1.00;0.60;;;;;;;7.29;100.00;98013.75;5074800;28;20432;-78
2023/12/21 08:05:17;;;;;;;1.60;0.50;;;;;;;7.22;100.00;98010.75;5070689;28;20438;-76
2023/12/21 08:07:50;;;;;;;0.70;0.60;;;;;;;7.25;100.00;98001.16;5061360;28;20432;-75
2023/12/21 08:10:19;;;;;;;0.85;0.50;;;;;;;7.26;100.00;98005.47;5072118;28;20425;-76
2023/12/21 08:12:52;;;;;;;0.68;0.60;;;;;;;7.26;100.00;97989.22;5072883;28;20419;-77
2023/12/21 08:15:26;;;;;;;0.50;0.40;;;;;;;7.29;100.00;97985.88;5069579;28;20411;-76
2023/12/21 08:18:01;;;;;;;1.13;0.60;;;;;;;7.20;100.00;97983.22;5067879;28;20442;-77
2023/12/21 08:20:29;;;;;;;1.60;0.70;;;;;;;7.30;100.00;97973.94;5067361;28;20410;-77
2023/12/21 08:23:02;;;;;;;0.93;0.73;;;;;;;7.29;100.00;97975.88;5077561;28;20993;-77
2023/12/21 08:25:35;;;;;;;1.20;0.70;;;;;;;7.27;100.00;97961.06;5062171;28;20416;-77
2023/12/21 08:28:04;;;;;;;0.50;0.40;;;;;;;7.29;100.00;97956.94;5057020;28;20926;-77
2023/12/21 08:30:33;;;;;;;1.00;0.50;;;;;;;7.27;100.00;97950.25;5069632;28;20423;-79
2023/12/21 08:33:03;;;;;;;1.30;0.40;;;;;;;7.34;100.00;97937.00;5082901;28;20433;-78
2023/12/21 08:35:31;;;;;;;0.40;0.38;;;;;;;7.33;100.00;97935.41;5066210;28;20419;-77
2023/12/21 08:38:00;;;;;;;0.77;0.50;;;;;;;7.34;100.00;97928.91;5066412;28;20423;-79
2023/12/21 08:40:28;;;;;;;2.70;0.70;;;;;;;7.37;100.00;97906.59;5066104;28;20416;-76
2023/12/21 08:42:57;;;;;;;2.50;1.20;;;;;;;7.41;100.00;97902.09;5071335;28;20434;-78
2023/12/21 08:45:30;;;;;;;1.88;0.85;;;;;;;7.35;100.00;97900.72;5064815;28;20424;-78
2023/12/21 08:47:58;;;;;;;0.90;0.50;;;;;;;7.36;100.00;97879.88;5067356;28;20434;-78
2023/12/21 08:50:32;;;;;;;1.27;0.75;;;;;;;7.37;100.00;97884.16;5061438;28;20428;-78
2023/12/21 08:53:06;;;;;;;1.02;0.50;;;;;;;7.35;100.00;97859.34;5067124;28;20435;-76
2023/12/21 08:55:34;;;;;;;0.40;0.40;;;;;;;7.45;100.00;97877.91;5071662;28;20419;-77
2023/12/21 08:58:02;;;;;;;1.85;1.00;;;;;;;7.42;100.00;97867.75;5066424;28;20439;-78
2023/12/21 09:00:30;;;;;;;2.47;0.80;;;;;;;7.41;100.00;97869.63;5063990;28;20408;-77
2023/12/21 09:03:04;;;;;;;0.55;0.47;;;;;;;7.36;100.00;97860.94;5068808;28;20427;-78
2023/12/21 09:05:33;;;;;;;0.80;0.53;;;;;;;7.44;100.00;97850.06;5073733;28;20516;-77
2023/12/21 09:08:07;;;;;;;0.70;0.50;;;;;;;7.39;100.00;97849.44;5062420;28;20432;-78
2023/12/21 09:10:40;;;;;;;1.02;0.50;;;;;;;7.40;100.00;97838.31;5066983;28;20422;-79
2023/12/21 09:13:13;;;;;;;0.40;0.40;;;;;;;7.34;100.00;97828.78;5059960;28;20912;-77
2023/12/21 09:15:46;;;;;;;0.50;0.38;;;;;;;7.38;100.00;97821.59;5059849;28;20420;-78
2023/12/21 09:18:14;;;;;;;0.50;0.50;;;;;;;7.42;100.00;97814.41;5057489;28;20421;-77
2023/12/21 09:20:44;;;;;;;0.80;0.50;;;;;;;7.34;100.00;97817.97;5065659;28;20425;-77
2023/12/21 09:23:12;;;;;;;0.57;0.40;;;;;;;7.34;100.00;97809.06;5063035;28;20935;-79
2023/12/21 09:25:41;;;;;;;0.70;0.40;;;;;;;7.39;100.00;97806.16;5060284;28;21313;-78
2023/12/21 09:28:14;;;;;;;0.52;0.40;;;;;;;7.38;100.00;97794.56;5066734;28;20431;-77
2023/12/21 09:30:49;;;;;;;0.90;0.50;;;;;;;7.32;100.00;97788.53;5065522;28;20494;-77
2023/12/21 09:33:22;;;;;;;1.52;0.60;;;;;;;7.30;100.00;97788.06;5064719;28;20808;-77
2023/12/21 09:35:54;;;;;;;3.00;0.60;;;;;;;7.32;100.00;97766.13;5069632;28;20419;-78
2023/12/21 09:38:27;;;;;;;0.90;0.40;;;;;;;7.31;100.00;97759.13;5054150;28;20813;-77
2023/12/21 09:41:01;;;;;;;1.63;0.80;;;;;;;7.37;100.00;97752.38;5066133;28;20907;-78
2023/12/21 09:43:37;;;;;;;4.22;1.60;;;;;;;7.40;100.00;97742.81;5061708;28;20920;-77
2023/12/21 09:46:06;;;;;;;2.50;1.00;;;;;;;7.39;100.00;97723.09;5018704;28;20436;-80
2023/12/21 09:48:40;;;;;;;1.60;0.90;;;;;;;7.36;100.00;97712.94;5048801;28;21091;-78
2023/12/21 09:51:17;;;;;;;1.25;0.70;;;;;;;7.40;100.00;97697.63;5048687;28;20433;-81
2023/12/21 09:53:46;;;;;;;2.30;0.75;;;;;;;7.47;100.00;97692.47;5040166;28;20430;-81
2023/12/21 09:56:20;;;;;;;1.00;0.70;;;;;;;7.51;100.00;97679.03;5038264;28;20431;-83
2023/12/21 09:58:55;;;;;;;1.83;0.70;;;;;;;7.58;100.00;97683.91;5037286;28;20629;-79
2023/12/21 10:01:28;;;;;;;0.95;0.60;;;;;;;7.53;100.00;97665.97;5035611;28;20420;-79
2023/12/21 10:04:02;;;;;;;1.48;0.70;;;;;;;7.54;100.00;97661.34;5037053;28;20456;-80
2023/12/21 10:06:31;;;;;;;3.15;0.75;;;;;;;7.57;100.00;97644.47;5061180;28;21505;-77
2023/12/21 10:08:59;;;;;;;1.40;0.50;;;;;;;7.48;100.00;97634.53;5045089;28;21029;-80
2023/12/21 10:11:33;;;;;;;0.70;0.57;;;;;;;7.55;100.00;97630.47;5044590;28;20432;-80
2023/12/21 10:14:16;;;;;;;1.30;0.60;;;;;;;7.55;100.00;97636.66;5048784;28;20416;-78
2023/12/21 10:16:49;;;;;;;2.90;0.50;;;;;;;7.59;100.00;97637.56;5045726;28;20452;-80
2023/12/21 10:19:17;;;;;;;0.47;0.40;;;;;;;7.58;100.00;97627.91;5039827;28;20427;-82
2023/12/21 10:21:47;;;;;;;0.38;0.35;;;;;;;7.53;100.00;97617.28;5042237;28;20429;-77
2023/12/21 10:24:21;;;;;;;0.85;0.40;;;;;;;7.49;100.00;97614.44;5041722;28;20427;-82
2023/12/21 10:26:51;;;;;;;1.00;0.30;;;;;;;7.64;100.00;97613.00;5043852;28;20843;-84
2023/12/21 10:29:20;;;;;;;0.73;0.50;;;;;;;7.59;100.00;97594.28;5043392;28;20953;-83
2023/12/21 10:31:49;;;;;;;2.78;0.40;;;;;;;7.61;100.00;97605.56;5049313;28;20436;-80
2023/12/21 10:34:22;;;;;;;0.80;0.50;;;;;;;7.67;100.00;97579.06;5046242;28;20427;-85
2023/12/21 10:36:53;;;;;;;0.60;0.50;;;;;;;7.60;100.00;97587.75;5043015;28;22201;-80
2023/12/21 10:39:23;;;;;;;0.60;0.43;;;;;;;7.63;100.00;97572.75;5059461;28;22024;-83
2023/12/21 10:41:51;;;;;;;0.52;0.40;;;;;;;7.74;100.00;97584.72;5042786;28;20435;-86
2023/12/21 10:44:25;;;;;;;0.75;0.30;;;;;;;7.74;100.00;97573.09;5056036;28;20424;-83
2023/12/21 10:46:53;;;;;;;0.82;0.52;;;;;;;7.79;100.00;97560.13;5032772;28;20432;-86
2023/12/21 10:49:22;;;;;;;1.20;0.68;;;;;;;7.72;100.00;97562.63;5036300;28;20460;-83
2023/12/21 10:51:54;;;;;;;1.00;0.60;;;;;;;7.71;100.00;97539.38;5043238;28;20423;-86
2023/12/21 10:54:23;;;;;;;1.23;0.60;;;;;;;7.77;100.00;97542.66;5048051;28;20432;-82
2023/12/21 10:56:58;;;;;;;0.90;0.60;;;;;;;7.75;100.00;97536.78;5043447;28;20431;-85
2023/12/21 10:59:27;;;;;;;1.37;0.70;;;;;;;7.78;100.00;97520.66;5037604;28;20913;-83
2023/12/21 11:01:56;;;;;;;1.30;0.70;;;;;;;7.87;100.00;97512.44;5039204;28;20439;-85
2023/12/21 11:04:25;;;;;;;2.92;0.70;;;;;;;7.80;100.00;97499.47;5041366;28;20444;-81
2023/12/21 11:06:55;;;;;;;0.88;0.70;;;;;;;7.80;100.00;97501.34;5038848;28;20464;-85
2023/12/21 11:09:25;;;;;;;0.80;0.70;;;;;;;7.83;100.00;97481.75;5049209;28;20466;-84
2023/12/21 11:11:59;;;;;;;0.60;0.50;;;;;;;7.78;100.00;97490.88;5041635;28;20437;-84
2023/12/21 11:14:27;;;;;;;1.33;0.60;;;;;;;7.82;100.00;97469.34;5038496;28;20446;-82
2023/12/21 11:16:59;;;;;;;3.60;0.65;;;;;;;7.79;100.00;97475.44;5043598;28;20423;-83
2023/12/21 11:19:31;;;;;;;1.75;0.73;;;;;;;7.82;100.00;97458.50;5041996;28;20429;-81
2023/12/21 11:22:02;;;;;;;1.80;0.60;;;;;;;7.83;100.00;97455.47;5038924;28;20417;-81
2023/12/21 11:24:30;;;;;;;1.00;0.50;;;;;;;7.81;100.00;97446.88;5043439;28;21333;-86
2023/12/21 11:26:59;;;;;;;1.20;0.70;;;;;;;7.92;100.00;97436.38;5043813;28;20427;-86
2023/12/21 11:29:28;;;;;;;0.90;0.70;;;;;;;7.93;100.00;97415.50;5038930;28;20433;-85
2023/12/21 11:32:05;;;;;;;2.95;0.90;;;;;;;7.86;100.00;97416.09;5042870;28;21131;-84
2023/12/21 11:34:40;;;;;;;2.10;0.80;;;;;;;8.02;100.00;97410.72;5046902;28;20435;-83
2023/12/21 11:37:21;;;;;;;3.40;0.85;;;;;;;7.95;100.00;97402.41;5057077;28;20421;-85
2023/12/21 11:39:58;;;;;;;0.95;0.70;;;;;;;7.93;100.00;97396.56;5038629;28;20413;-83
2023/12/21 11:42:33;;;;;;;2.55;0.70;;;;;;;7.90;100.00;97394.50;5037731;28;20462;-85
2023/12/21 11:45:03;;;;;;;2.00;0.67;;;;;;;7.95;100.00;97392.34;5062479;28;20800;-86
2023/12/21 11:47:36;;;;;;;0.98;0.60;;;;;;;7.97;100.00;97381.97;5015380;28;20780;-83
2023/12/21 11:50:07;;;;;;;2.17;0.68;;;;;;;7.98;100.00;97372.72;5040532;28;20858;-85
2023/12/21 11:52:41;;;;;;;2.10;0.60;;;;;;;8.00;100.00;97358.84;5040353;28;20420;-81